createdAt,value
2023-04-28T00:00:54.894Z,100742.77
2023-04-28T00:03:22.228Z,100750.27
2023-04-28T00:05:49.711Z,100749.15
2023-04-28T00:08:17.007Z,100745.48
2023-04-28T00:10:44.402Z,100741.56
2023-04-28T00:13:11.780Z,100745.05
2023-04-28T00:15:39.115Z,100745.17
2023-04-28T00:18:06.527Z,100743.98
2023-04-28T00:20:33.874Z,100745.30
2023-04-28T00:23:01.053Z,100748.02
2023-04-28T00:25:28.331Z,100748.72
2023-04-28T00:27:55.613Z,100750.81
2023-04-28T00:30:24.710Z,100747.06
2023-04-28T00:32:52.008Z,100759.23
2023-04-28T00:35:19.409Z,100762.84
2023-04-28T00:37:46.816Z,100760.84
2023-04-28T00:40:14.493Z,100761.79
2023-04-28T00:42:42.198Z,100765.23
2023-04-28T00:45:11.070Z,100766.21
2023-04-28T00:47:38.377Z,100765.35
2023-04-28T00:50:06.328Z,100765.34
2023-04-28T00:52:33.996Z,100761.89
2023-04-28T00:55:01.863Z,100762.27
2023-04-28T00:57:30.900Z,100762.61
2023-04-28T00:59:58.150Z,100766.41
2023-04-28T01:02:26.698Z,100766.86
2023-04-28T01:04:55.878Z,100762.65
2023-04-28T01:07:23.284Z,100766.71
2023-04-28T01:09:50.836Z,100763.15
2023-04-28T01:12:19.980Z,100762.55
2023-04-28T01:14:50.180Z,100768.27
2023-04-28T01:17:18.167Z,100766.21
2023-04-28T01:19:45.475Z,100762.66
2023-04-28T01:22:16.099Z,100761.02
2023-04-28T01:24:44.384Z,100756.23
2023-04-28T01:27:12.203Z,100758.66
2023-04-28T01:29:40.369Z,100760.04
2023-04-28T01:32:09.278Z,100758.59
2023-04-28T01:34:36.676Z,100759.75
2023-04-28T01:37:05.745Z,100765.72
2023-04-28T01:39:34.611Z,100763.36
2023-04-28T01:42:03.828Z,100759.33
2023-04-28T01:44:31.000Z,100764.10
2023-04-28T01:46:58.224Z,100758.55
2023-04-28T01:49:25.572Z,100759.77
2023-04-28T01:51:52.977Z,100765.00
2023-04-28T01:54:20.217Z,100764.17
2023-04-28T01:56:47.825Z,100769.52
2023-04-28T01:59:16.021Z,100771.85
2023-04-28T02:01:43.233Z,100770.90
2023-04-28T02:04:10.811Z,100773.05
2023-04-28T02:06:38.215Z,100773.94
2023-04-28T02:09:05.764Z,100780.91
2023-04-28T02:11:34.833Z,100787.31
2023-04-28T02:14:02.130Z,100786.11
2023-04-28T02:16:29.426Z,100790.16
2023-04-28T02:18:56.775Z,100785.66
2023-04-28T02:21:23.965Z,100782.27
2023-04-28T02:23:51.338Z,100777.59
2023-04-28T02:26:18.665Z,100785.30
2023-04-28T02:28:46.007Z,100789.34
2023-04-28T02:31:13.562Z,100788.79
2023-04-28T02:33:42.011Z,100787.56
2023-04-28T02:36:10.289Z,100787.04
2023-04-28T02:38:37.567Z,100796.61
2023-04-28T02:41:08.646Z,100792.73
2023-04-28T02:43:37.115Z,100792.73
2023-04-28T02:46:05.179Z,100800.44
2023-04-28T02:48:34.981Z,100802.61
2023-04-28T02:51:03.072Z,100807.79
2023-04-28T02:53:30.428Z,100810.33
2023-04-28T02:55:58.905Z,100809.26
2023-04-28T02:58:26.577Z,100817.00
2023-04-28T03:00:54.132Z,100814.77
2023-04-28T03:03:21.557Z,100825.41
2023-04-28T03:05:49.045Z,100820.54
2023-04-28T03:08:16.600Z,100825.00
2023-04-28T03:10:43.954Z,100823.70
2023-04-28T03:13:12.121Z,100821.41
2023-04-28T03:15:39.546Z,100824.91
2023-04-28T03:18:07.059Z,100826.40
2023-04-28T03:20:34.362Z,100831.34
2023-04-28T03:23:02.178Z,100847.34
2023-04-28T03:25:29.753Z,100838.33
2023-04-28T03:27:57.049Z,100837.80
2023-04-28T03:30:24.432Z,100838.81
2023-04-28T03:32:51.892Z,100846.58
2023-04-28T03:35:19.225Z,100844.70
2023-04-28T03:37:46.684Z,100846.30
2023-04-28T03:40:14.025Z,100850.27
2023-04-28T03:42:59.611Z,100848.04
2023-04-28T03:45:31.421Z,100847.73
2023-04-28T03:47:58.984Z,100838.98
2023-04-28T03:50:26.864Z,100846.20
2023-04-28T03:52:54.652Z,100853.79
2023-04-28T03:55:22.525Z,100849.02
2023-04-28T03:57:52.058Z,100851.78
2023-04-28T04:00:19.623Z,100857.19
2023-04-28T04:02:47.170Z,100853.71
2023-04-28T04:05:16.485Z,100861.21
2023-04-28T04:07:44.080Z,100858.47
2023-04-28T04:10:11.530Z,100856.80
2023-04-28T04:12:40.977Z,100861.70
2023-04-28T04:15:09.172Z,100863.15
2023-04-28T04:17:36.999Z,100867.40
2023-04-28T04:20:05.767Z,100869.98
2023-04-28T04:22:33.518Z,100870.96
2023-04-28T04:25:00.854Z,100876.10
2023-04-28T04:27:28.256Z,100876.16
2023-04-28T04:29:55.751Z,100877.83
2023-04-28T04:32:23.152Z,100881.04
2023-04-28T04:34:50.508Z,100882.86
2023-04-28T04:37:18.923Z,100878.45
2023-04-28T04:39:51.904Z,100881.23
2023-04-28T04:42:25.418Z,100876.42
2023-04-28T04:45:10.970Z,100877.46
2023-04-28T04:47:38.461Z,100880.30
2023-04-28T04:50:07.046Z,100885.28
2023-04-28T04:52:34.310Z,100879.62
2023-04-28T04:55:01.776Z,100882.61
2023-04-28T04:57:29.528Z,100881.58
2023-04-28T05:00:20.039Z,100887.98
2023-04-28T05:02:47.633Z,100883.95
2023-04-28T05:05:21.269Z,100881.48
2023-04-28T05:07:56.455Z,100881.42
2023-04-28T05:10:24.807Z,100880.34
2023-04-28T05:12:52.375Z,100889.96
2023-04-28T05:15:19.676Z,100883.94
2023-04-28T05:18:09.368Z,100886.33
2023-04-28T05:20:37.396Z,100889.38
2023-04-28T05:23:06.262Z,100886.88
2023-04-28T05:25:33.857Z,100894.58
2023-04-28T05:28:06.802Z,100893.44
2023-04-28T05:30:34.263Z,100896.55
2023-04-28T05:33:01.709Z,100894.40
2023-04-28T05:35:31.021Z,100897.68
2023-04-28T05:37:58.786Z,100903.52
2023-04-28T05:40:26.982Z,100906.70
2023-04-28T05:42:55.822Z,100903.77
2023-04-28T05:45:23.191Z,100900.56
2023-04-28T05:47:51.063Z,100911.88
2023-04-28T05:50:18.566Z,100909.88
2023-04-28T05:52:45.874Z,100911.83
2023-04-28T05:55:13.847Z,100914.35
2023-04-28T05:57:49.730Z,100909.83
2023-04-28T06:00:19.934Z,100913.86
2023-04-28T06:02:47.454Z,100919.73
2023-04-28T06:05:15.160Z,100917.67
2023-04-28T06:07:43.433Z,100918.17
2023-04-28T06:10:11.493Z,100920.73
2023-04-28T06:12:39.010Z,100923.23
2023-04-28T06:15:07.010Z,100927.86
2023-04-28T06:17:34.548Z,100928.61
2023-04-28T06:20:01.940Z,100926.05
2023-04-28T06:22:29.263Z,100926.92
2023-04-28T06:24:56.515Z,100927.58
2023-04-28T06:27:32.386Z,100927.86
2023-04-28T06:29:59.861Z,100926.98
2023-04-28T06:32:27.221Z,100912.60
2023-04-28T06:34:55.333Z,100929.86
2023-04-28T06:37:24.193Z,100930.48
2023-04-28T06:39:51.627Z,100933.11
2023-04-28T06:42:19.892Z,100934.41
2023-04-28T06:44:55.032Z,100936.27
2023-04-28T06:47:22.389Z,100944.70
2023-04-28T06:49:49.774Z,100937.90
2023-04-28T06:52:17.513Z,100938.05
2023-04-28T06:54:44.924Z,100938.61
2023-04-28T06:57:12.549Z,100941.45
2023-04-28T06:59:43.385Z,100946.56
2023-04-28T07:02:10.867Z,100937.95
2023-04-28T07:04:38.339Z,100943.87
2023-04-28T07:07:07.743Z,100938.20
2023-04-28T07:09:35.816Z,100937.48
2023-04-28T07:12:06.595Z,100943.97
2023-04-28T07:14:33.880Z,100942.88
2023-04-28T07:17:01.260Z,100937.58
2023-04-28T07:19:28.631Z,100941.09
2023-04-28T07:21:55.922Z,100944.77
2023-04-28T07:24:23.225Z,100944.13
2023-04-28T07:26:50.932Z,100945.73
2023-04-28T07:29:18.408Z,100946.61
2023-04-28T07:31:45.783Z,100941.34
2023-04-28T07:34:13.163Z,100945.66
2023-04-28T07:36:40.957Z,100941.84
2023-04-28T07:39:08.173Z,100941.03
2023-04-28T07:41:38.877Z,100940.27
2023-04-28T07:44:09.926Z,100938.60
2023-04-28T07:46:37.576Z,100929.35
2023-04-28T07:49:05.006Z,100928.81
2023-04-28T07:51:32.455Z,100921.48
2023-04-28T07:54:00.051Z,100933.30
2023-04-28T07:56:27.696Z,100926.17
2023-04-28T07:58:55.343Z,100924.27
2023-04-28T08:01:22.630Z,100924.55
2023-04-28T08:03:50.368Z,100925.61
2023-04-28T08:06:18.520Z,100922.33
2023-04-28T08:08:46.713Z,100914.95
2023-04-28T08:11:32.958Z,100907.16
2023-04-28T08:14:19.466Z,100906.59
2023-04-28T08:17:04.951Z,100900.98
2023-04-28T08:19:50.335Z,100898.80
2023-04-28T08:22:17.668Z,100901.52
2023-04-28T08:24:45.026Z,100903.40
2023-04-28T08:27:12.453Z,100893.22
2023-04-28T08:29:39.911Z,100896.73
2023-04-28T08:32:07.395Z,100896.99
2023-04-28T08:34:34.779Z,100892.65
2023-04-28T08:37:02.296Z,100896.41
2023-04-28T08:39:33.566Z,100898.80
2023-04-28T08:42:04.569Z,100888.58
2023-04-28T08:44:40.248Z,100891.48
2023-04-28T08:47:14.591Z,100876.52
2023-04-28T08:49:43.092Z,100888.59
2023-04-28T08:52:13.241Z,100885.17
2023-04-28T08:54:41.151Z,100890.15
2023-04-28T08:57:10.280Z,100899.75
2023-04-28T08:59:41.616Z,100885.77
2023-04-28T09:02:09.816Z,100885.91
2023-04-28T09:04:37.743Z,100882.85
2023-04-28T09:07:11.539Z,100878.04
2023-04-28T09:09:40.420Z,100880.95
2023-04-28T09:12:08.545Z,100876.10
2023-04-28T09:14:37.730Z,100871.77
2023-04-28T09:17:13.377Z,100877.23
2023-04-28T09:19:43.821Z,100871.07
2023-04-28T09:22:25.708Z,100865.05
2023-04-28T09:24:55.739Z,100854.31
2023-04-28T09:27:27.979Z,100865.44
2023-04-28T09:29:55.544Z,100864.94
2023-04-28T09:32:24.345Z,100865.40
2023-04-28T09:34:56.201Z,100866.55
2023-04-28T09:37:26.809Z,100860.23
2023-04-28T09:39:55.273Z,100860.73
2023-04-28T09:42:43.803Z,100857.41
2023-04-28T09:45:15.803Z,100865.27
2023-04-28T09:47:48.523Z,100847.52
2023-04-28T09:50:17.903Z,100861.52
2023-04-28T09:52:56.719Z,100852.77
2023-04-28T09:55:24.482Z,100848.54
2023-04-28T09:57:54.610Z,100849.86
2023-04-28T10:00:22.927Z,100858.33
2023-04-28T10:02:51.212Z,100854.63
2023-04-28T10:05:19.460Z,100845.77
2023-04-28T10:07:46.938Z,100841.49
2023-04-28T10:10:15.142Z,100844.63
2023-04-28T10:12:43.605Z,100861.60
2023-04-28T10:15:12.790Z,100853.20
2023-04-28T10:17:40.398Z,100855.94
2023-04-28T10:20:08.704Z,100859.92
2023-04-28T10:23:25.654Z,100852.95
2023-04-28T10:25:57.694Z,100844.95
2023-04-28T10:28:29.365Z,100848.39
2023-04-28T10:31:22.802Z,100851.14
2023-04-28T10:33:50.429Z,100842.40
2023-04-28T10:36:50.366Z,100842.91
2023-04-28T10:39:17.979Z,100841.70
2023-04-28T10:41:48.456Z,100841.61
2023-04-28T10:44:30.640Z,100850.61
2023-04-28T10:47:09.066Z,100847.70
2023-04-28T10:49:54.418Z,100848.02
2023-04-28T10:52:37.307Z,100847.44
2023-04-28T10:55:36.929Z,100843.29
2023-04-28T10:58:16.336Z,100839.67
2023-04-28T11:00:47.597Z,100846.38
2023-04-28T11:03:53.736Z,100841.69
2023-04-28T11:06:33.888Z,100835.80
2023-04-28T11:09:32.825Z,100841.56
2023-04-28T11:12:00.194Z,100837.13
2023-04-28T11:14:34.619Z,100840.02
2023-04-28T11:17:07.190Z,100838.52
2023-04-28T11:19:41.128Z,100838.73
2023-04-28T11:22:23.489Z,100842.88
2023-04-28T11:25:02.268Z,100842.98
2023-04-28T11:27:32.665Z,100846.59
2023-04-28T11:30:01.183Z,100841.55
2023-04-28T11:32:36.063Z,100842.48
2023-04-28T11:35:09.129Z,100832.42
2023-04-28T11:37:36.478Z,100836.00
2023-04-28T11:40:13.762Z,100849.52
2023-04-28T11:42:48.646Z,100836.73
2023-04-28T11:45:16.159Z,100835.55
2023-04-28T11:47:43.644Z,100843.65
2023-04-28T11:50:12.411Z,100844.20
2023-04-28T11:52:51.739Z,100844.05
2023-04-28T11:55:20.712Z,100841.70
2023-04-28T11:57:48.136Z,100841.58
2023-04-28T12:00:21.470Z,100846.23
2023-04-28T12:02:49.033Z,100848.92
2023-04-28T12:05:16.622Z,100840.14
2023-04-28T12:07:44.825Z,100841.13
2023-04-28T12:10:18.180Z,100825.75
2023-04-28T12:12:51.977Z,100825.11
2023-04-28T12:15:21.245Z,100835.11
2023-04-28T12:18:12.173Z,100825.26
2023-04-28T12:20:39.753Z,100817.35
2023-04-28T12:23:07.940Z,100818.42
2023-04-28T12:25:44.883Z,100815.48
2023-04-28T12:28:12.416Z,100811.36
2023-04-28T12:30:41.492Z,100802.28
2023-04-28T12:33:26.910Z,100805.71
2023-04-28T12:35:56.116Z,100804.58
2023-04-28T12:38:24.550Z,100804.35
2023-04-28T12:40:52.712Z,100798.26
2023-04-28T12:43:22.674Z,100788.08
2023-04-28T12:45:52.490Z,100798.02
2023-04-28T12:48:20.134Z,100790.80
2023-04-28T12:50:47.335Z,100790.38
2023-04-28T12:53:14.702Z,100783.08
2023-04-28T12:55:42.374Z,100784.47
2023-04-28T12:58:09.814Z,100780.84
2023-04-28T13:00:37.219Z,100782.13
2023-04-28T13:03:04.669Z,100781.48
2023-04-28T13:05:32.646Z,100785.95
2023-04-28T13:08:00.054Z,100789.45
2023-04-28T13:10:28.236Z,100795.61
2023-04-28T13:12:55.826Z,100782.35
2023-04-28T13:15:23.292Z,100780.14
2023-04-28T13:17:50.653Z,100772.13
2023-04-28T13:20:18.104Z,100774.59
2023-04-28T13:22:45.620Z,100788.25
2023-04-28T13:25:13.204Z,100785.79
2023-04-28T13:27:42.659Z,100775.91
2023-04-28T13:30:11.737Z,100776.61
2023-04-28T13:32:39.254Z,100770.40
2023-04-28T13:35:08.487Z,100773.23
2023-04-28T13:37:38.595Z,100774.33
2023-04-28T13:40:07.217Z,100763.03
2023-04-28T13:42:34.553Z,100772.34
2023-04-28T13:45:01.831Z,100774.85
2023-04-28T13:47:32.137Z,100769.85
2023-04-28T13:50:03.014Z,100771.08
2023-04-28T13:52:30.384Z,100765.56
2023-04-28T13:54:57.692Z,100765.55
2023-04-28T13:57:26.202Z,100762.42
2023-04-28T13:59:53.616Z,100758.25
2023-04-28T14:02:21.053Z,100767.85
2023-04-28T14:04:50.253Z,100764.20
2023-04-28T14:07:18.288Z,100759.75
2023-04-28T14:09:45.899Z,100757.21
2023-04-28T14:12:14.847Z,100762.29
2023-04-28T14:14:42.327Z,100755.06
2023-04-28T14:17:09.848Z,100752.70
2023-04-28T14:19:37.181Z,100744.16
2023-04-28T14:22:04.495Z,100743.73
2023-04-28T14:24:31.908Z,100740.05
2023-04-28T14:26:59.285Z,100739.09
2023-04-28T14:29:26.696Z,100735.77
2023-04-28T14:31:54.004Z,100735.49
2023-04-28T14:34:21.360Z,100734.01
2023-04-28T14:36:48.835Z,100732.89
2023-04-28T14:39:16.116Z,100731.96
2023-04-28T14:41:43.534Z,100730.09
2023-04-28T14:44:10.865Z,100731.11
2023-04-28T14:46:38.222Z,100734.59
2023-04-28T14:49:05.704Z,100734.08
2023-04-28T14:51:32.982Z,100735.30
2023-04-28T14:54:00.516Z,100740.95
2023-04-28T14:56:27.922Z,100748.19
2023-04-28T14:58:55.058Z,100748.64
2023-04-28T15:01:22.482Z,100756.41
2023-04-28T15:03:50.238Z,100759.25
2023-04-28T15:06:17.575Z,100762.48
2023-04-28T15:08:45.921Z,100757.56
2023-04-28T15:11:13.341Z,100752.14
2023-04-28T15:13:42.873Z,100754.00
2023-04-28T15:16:10.414Z,100754.77
2023-04-28T15:18:37.885Z,100755.16
2023-04-28T15:21:05.777Z,100749.63
2023-04-28T15:23:33.030Z,100755.92
2023-04-28T15:26:01.376Z,100745.64
2023-04-28T15:28:28.696Z,100745.96
2023-04-28T15:30:56.356Z,100745.77
2023-04-28T15:33:23.765Z,100750.18
2023-04-28T15:35:51.092Z,100746.77
2023-04-28T15:38:18.398Z,100746.13
2023-04-28T15:40:45.856Z,100741.73
2023-04-28T15:43:13.131Z,100746.13
2023-04-28T15:45:40.330Z,100747.65
2023-04-28T15:48:08.700Z,100749.48
2023-04-28T15:50:36.888Z,100745.39
2023-04-28T15:53:04.120Z,100745.17
2023-04-28T15:55:31.421Z,100743.52
2023-04-28T15:57:58.734Z,100743.65
2023-04-28T16:00:26.166Z,100738.61
2023-04-28T16:02:53.631Z,100737.92
2023-04-28T16:05:21.073Z,100744.23
2023-04-28T16:07:49.368Z,100738.35
2023-04-28T16:10:17.020Z,100735.09
2023-04-28T16:12:44.609Z,100737.83
2023-04-28T16:15:12.800Z,100740.80
2023-04-28T16:17:41.330Z,100740.67
2023-04-28T16:20:10.526Z,100736.39
2023-04-28T16:22:40.183Z,100741.25
2023-04-28T16:25:08.769Z,100739.11
2023-04-28T16:27:36.678Z,100738.45
2023-04-28T16:30:08.026Z,100738.91
2023-04-28T16:32:37.241Z,100731.52
2023-04-28T16:35:05.856Z,100733.45
2023-04-28T16:37:33.181Z,100738.38
2023-04-28T16:40:00.845Z,100736.56
2023-04-28T16:42:28.069Z,100731.41
2023-04-28T16:44:55.478Z,100732.54
2023-04-28T16:47:22.780Z,100733.27
2023-04-28T16:49:50.843Z,100733.16
2023-04-28T16:52:18.307Z,100738.58
2023-04-28T16:54:45.546Z,100738.52
2023-04-28T16:57:12.828Z,100741.61
2023-04-28T16:59:40.078Z,100733.75
2023-04-28T17:02:07.510Z,100733.21
2023-04-28T17:04:36.056Z,100733.35
2023-04-28T17:07:04.716Z,100734.25
2023-04-28T17:09:32.639Z,100740.86
2023-04-28T17:12:00.594Z,100736.90
2023-04-28T17:14:27.753Z,100734.31
2023-04-28T17:16:55.382Z,100738.99
2023-04-28T17:19:23.086Z,100731.55
2023-04-28T17:21:52.107Z,100740.00
2023-04-28T17:24:19.389Z,100747.52
2023-04-28T17:26:46.770Z,100746.23
2023-04-28T17:29:14.397Z,100747.77
2023-04-28T17:31:41.909Z,100755.60
2023-04-28T17:34:09.292Z,100751.47
2023-04-28T17:36:36.762Z,100758.52
2023-04-28T17:39:04.083Z,100763.15
2023-04-28T17:41:31.784Z,100770.08
2023-04-28T17:43:59.043Z,100766.52
2023-04-28T17:46:26.972Z,100765.42
2023-04-28T17:48:54.403Z,100768.43
2023-04-28T17:51:21.855Z,100765.73
2023-04-28T17:53:49.206Z,100768.73
2023-04-28T17:56:16.686Z,100768.96
2023-04-28T17:58:43.938Z,100765.95
2023-04-28T18:01:11.426Z,100767.36
2023-04-28T18:03:39.289Z,100766.17
2023-04-28T18:06:07.496Z,100768.34
2023-04-28T18:08:36.081Z,100772.33
2023-04-28T18:11:03.498Z,100771.16
2023-04-28T18:13:32.256Z,100772.95
2023-04-28T18:16:00.372Z,100775.58
2023-04-28T18:18:30.200Z,100778.77
2023-04-28T18:21:00.326Z,100779.23
2023-04-28T18:23:27.681Z,100780.43
2023-04-28T18:25:54.938Z,100784.76
2023-04-28T18:28:22.254Z,100779.25
2023-04-28T18:30:49.881Z,100777.13
2023-04-28T18:33:22.305Z,100779.84
2023-04-28T18:36:00.129Z,100790.16
2023-04-28T18:38:27.904Z,100785.98
2023-04-28T18:40:55.293Z,100786.27
2023-04-28T18:43:23.107Z,100792.39
2023-04-28T18:45:50.515Z,100791.61
2023-04-28T18:48:19.442Z,100792.33
2023-04-28T18:50:49.476Z,100792.67
2023-04-28T18:53:17.128Z,100796.45
2023-04-28T18:55:45.001Z,100797.33
2023-04-28T18:58:14.488Z,100797.69
2023-04-28T19:00:45.157Z,100797.88
2023-04-28T19:03:13.056Z,100800.99
2023-04-28T19:05:44.779Z,100804.56
2023-04-28T19:08:12.540Z,100809.06
2023-04-28T19:10:40.802Z,100811.56
2023-04-28T19:13:08.017Z,100813.41
2023-04-28T19:15:35.817Z,100818.68
2023-04-28T19:18:04.323Z,100815.84
2023-04-28T19:20:31.917Z,100812.61
2023-04-28T19:23:03.219Z,100816.08
2023-04-28T19:25:32.989Z,100814.45
2023-04-28T19:28:00.332Z,100816.17
2023-04-28T19:30:27.648Z,100811.86
2023-04-28T19:32:55.135Z,100815.20
2023-04-28T19:35:22.862Z,100817.12
2023-04-28T19:37:50.129Z,100819.79
2023-04-28T19:40:17.577Z,100822.02
2023-04-28T19:42:44.947Z,100823.05
2023-04-28T19:45:12.167Z,100824.66
2023-04-28T19:47:39.637Z,100828.59
2023-04-28T19:50:08.623Z,100826.89
2023-04-28T19:52:35.924Z,100828.38
2023-04-28T19:55:03.683Z,100830.80
2023-04-28T19:57:31.026Z,100831.58
2023-04-28T19:59:58.296Z,100833.13
2023-04-28T20:02:25.826Z,100827.99
2023-04-28T20:04:53.273Z,100831.67
2023-04-28T20:07:20.582Z,100835.24
2023-04-28T20:09:48.447Z,100826.62
2023-04-28T20:12:15.838Z,100828.55
2023-04-28T20:14:44.181Z,100834.30
2023-04-28T20:17:11.381Z,100831.50
2023-04-28T20:19:38.687Z,100836.38
2023-04-28T20:22:08.484Z,100830.81
2023-04-28T20:24:36.856Z,100829.80
2023-04-28T20:27:04.306Z,100826.54
2023-04-28T20:29:34.212Z,100826.21
2023-04-28T20:32:02.892Z,100828.88
2023-04-28T20:34:31.700Z,100832.17
2023-04-28T20:37:02.977Z,100825.61
2023-04-28T20:39:30.173Z,100832.88
2023-04-28T20:41:58.873Z,100833.30
2023-04-28T20:44:26.526Z,100829.97
2023-04-28T20:46:54.802Z,100830.73
2023-04-28T20:49:22.199Z,100828.71
2023-04-28T20:51:49.493Z,100830.19
2023-04-28T20:54:16.802Z,100826.48
2023-04-28T20:56:44.759Z,100828.40
2023-04-28T20:59:12.082Z,100829.39
2023-04-28T21:01:40.551Z,100823.16
2023-04-28T21:04:08.209Z,100820.52
2023-04-28T21:06:36.038Z,100821.83
2023-04-28T21:09:03.443Z,100822.19
2023-04-28T21:11:30.745Z,100824.92
2023-04-28T21:13:58.149Z,100826.85
2023-04-28T21:16:25.532Z,100822.54
2023-04-28T21:18:53.951Z,100823.29
2023-04-28T21:21:21.129Z,100825.88
2023-04-28T21:23:48.888Z,100825.73
2023-04-28T21:26:16.183Z,100829.55
2023-04-28T21:28:43.425Z,100828.25
2023-04-28T21:31:10.697Z,100821.34
2023-04-28T21:33:38.022Z,100823.79
2023-04-28T21:36:09.503Z,100820.41
2023-04-28T21:38:38.353Z,100817.31
2023-04-28T21:41:07.040Z,100817.00
2023-04-28T21:43:34.414Z,100819.25
2023-04-28T21:46:01.756Z,100812.12
2023-04-28T21:48:29.168Z,100808.20
2023-04-28T21:50:56.515Z,100816.11
2023-04-28T21:53:23.777Z,100815.41
2023-04-28T21:55:50.938Z,100815.17
2023-04-28T21:58:18.116Z,100812.63
2023-04-28T22:00:48.574Z,100811.54
2023-04-28T22:03:16.353Z,100812.48
2023-04-28T22:05:45.087Z,100808.45
2023-04-28T22:08:13.506Z,100805.17
2023-04-28T22:10:41.135Z,100807.58
2023-04-28T22:13:08.563Z,100808.55
2023-04-28T22:15:36.139Z,100805.88
2023-04-28T22:18:04.615Z,100804.70
2023-04-28T22:20:32.007Z,100801.77
2023-04-28T22:22:59.724Z,100802.96
2023-04-28T22:25:26.961Z,100800.80
2023-04-28T22:27:54.190Z,100799.44
2023-04-28T22:30:23.045Z,100794.52
2023-04-28T22:32:51.641Z,100791.66
2023-04-28T22:35:19.100Z,100788.09
2023-04-28T22:37:46.396Z,100796.70
2023-04-28T22:40:13.971Z,100795.70
2023-04-28T22:42:41.905Z,100790.59
2023-04-28T22:45:10.803Z,100790.54
2023-04-28T22:47:43.046Z,100786.20
2023-04-28T22:50:12.024Z,100784.20
2023-04-28T22:52:39.736Z,100787.63
2023-04-28T22:55:07.872Z,100780.27
2023-04-28T22:57:35.842Z,100784.40
2023-04-28T23:00:03.609Z,100775.17
2023-04-28T23:02:31.387Z,100781.91
2023-04-28T23:04:59.395Z,100779.10
2023-04-28T23:07:26.723Z,100773.55
2023-04-28T23:09:54.373Z,100766.49
2023-04-28T23:12:21.723Z,100768.03
2023-04-28T23:14:48.986Z,100766.52
2023-04-28T23:17:16.219Z,100766.77
2023-04-28T23:19:43.459Z,100760.59
2023-04-28T23:22:10.716Z,100750.29
2023-04-28T23:24:39.362Z,100755.04
2023-04-28T23:27:06.767Z,100757.66
2023-04-28T23:29:35.325Z,100757.30
2023-04-28T23:32:03.999Z,100754.35
2023-04-28T23:34:31.309Z,100753.96
2023-04-28T23:36:59.159Z,100758.23
2023-04-28T23:39:29.358Z,100752.75
2023-04-28T23:41:56.733Z,100755.48
2023-04-28T23:44:23.944Z,100753.23
2023-04-28T23:46:51.066Z,100755.39
2023-04-28T23:49:18.242Z,100756.67
2023-04-28T23:51:45.550Z,100762.30
2023-04-28T23:54:12.902Z,100770.31
2023-04-28T23:56:40.077Z,100762.54
2023-04-28T23:59:07.882Z,100764.10
